Aalderdijk — A8VB7 — position and weather

sailwx.info

Track history (hours):
 
Tides and Currents Weather Stations Pressure Air Temp Water Temp Dewpoint Dewpoint Depression Visibility Wind Speed Wind Dir Waves Ship Positions

Aalderdijk

Last reported at 2017-Sep-26 04:21 UTC. Time now 2017-Sep-26 05:56 UTC.
Position N 43°34' W 003°29'.

Length 168 m; draft 9.1 m.

Type: Ship (hazmat cat A). MMSI: 636014588.

Date/timePositionNaut miles runAvg speedWind from/ knotsBaromVisibWave heightAir tempDewpointWater temp
2017-Sep-26 04:21N 43°34' W 003°29'410.3
2017-Sep-26 04:00N 43°34' W 003°24'510.5
2017-Sep-26 03:31N 43°31' W 003°18'510.6
2017-Sep-26 03:00N 43°28' W 003°12'510.4
2017-Sep-26 02:30N 43°25' W 003°06'4 7.8
2017-Sep-26 02:00N 43°22' W 003°03'1 2.2
2017-Sep-26 01:28N 43°21' W 003°03'0 0.0
2017-Sep-26 00:58N 43°21' W 003°03'0 0.0
2017-Sep-26 00:28N 43°21' W 003°03'0 0.0
2017-Sep-25 23:58N 43°21' W 003°03'0 0.0
2017-Sep-25 23:28N 43°21' W 003°03'0 0.0
2017-Sep-25 22:58N 43°21' W 003°03'0 0.0
2017-Sep-25 22:28N 43°21' W 003°03'0 0.0
2017-Sep-25 21:58N 43°21' W 003°03'0 0.0
2017-Sep-25 21:28N 43°21' W 003°03'0 0.0
2017-Sep-25 20:58N 43°21' W 003°03'0 0.0
2017-Sep-25 20:28N 43°21' W 003°03'0 0.0
2017-Sep-25 19:58N 43°21' W 003°03'0 0.0
2017-Sep-25 19:28N 43°21' W 003°03'0 0.0
2017-Sep-25 18:58N 43°21' W 003°03'0 0.0
2017-Sep-25 18:28N 43°21' W 003°03'0 0.0
2017-Sep-25 17:58N 43°21' W 003°03'0 0.0
2017-Sep-25 17:28N 43°21' W 003°03'0 0.0
2017-Sep-25 16:58N 43°21' W 003°03'0 0.0
2017-Sep-25 16:28N 43°21' W 003°03'0 0.0
2017-Sep-25 15:58N 43°21' W 003°03'0 0.0
2017-Sep-25 15:28N 43°21' W 003°03'0 0.0
2017-Sep-25 14:58N 43°21' W 003°03'0 0.0
2017-Sep-25 14:28N 43°21' W 003°03'0 0.0
2017-Sep-25 13:58N 43°21' W 003°03'0 0.0
2017-Sep-25 13:28N 43°21' W 003°03'0 0.0
2017-Sep-25 12:58N 43°21' W 003°03'0 0.0
2017-Sep-25 12:28N 43°21' W 003°03'0 0.0
2017-Sep-25 11:58N 43°21' W 003°03'0 0.0
2017-Sep-25 11:28N 43°21' W 003°03'0 0.0
2017-Sep-25 10:58N 43°21' W 003°03'0 0.0
2017-Sep-25 10:28N 43°21' W 003°03'0 0.0
2017-Sep-25 09:58N 43°21' W 003°03'0 0.0
2017-Sep-25 09:28N 43°21' W 003°03'0 0.0
2017-Sep-25 08:58N 43°21' W 003°03'0 0.0
2017-Sep-25 08:28N 43°21' W 003°03'0 0.0
2017-Sep-25 07:58N 43°21' W 003°03'0 0.0
2017-Sep-25 07:28N 43°21' W 003°03'0 0.0
2017-Sep-25 06:58N 43°21' W 003°03'0 0.0
2017-Sep-25 06:28N 43°21' W 003°03'0 0.0
2017-Sep-25 05:58N 43°21' W 003°03'0 0.0
2017-Sep-25 05:28N 43°21' W 003°03'0 0.0
2017-Sep-25 05:00N 43°21' W 003°03'0 0.1
2017-Sep-25 04:31N 43°21' W 003°03'2 4.1
2017-Sep-25 04:01N 43°22' W 003°04'611.4
2017-Sep-25 03:31N 43°27' W 003°10'611.6
2017-Sep-25 03:01N 43°30' W 003°16'611.9
2017-Sep-25 02:31N 43°33' W 003°23'612.0
2017-Sep-25 02:00N 43°34' W 003°31'611.5
2017-Sep-25 01:30N 43°34' W 003°39'1411.8
2017-Sep-25 00:18N 43°36' W 003°59'412.0
2017-Sep-25 00:00N 43°36' W 004°04'4211.4
2017-Sep-24 20:17N 43°41' W 005°02'511.1
2017-Sep-24 19:49N 43°42' W 005°09'311.3
2017-Sep-24 19:30N 43°42' W 005°14'611.2
2017-Sep-24 19:01N 43°43' W 005°22'510.8
2017-Sep-24 18:31N 43°43' W 005°29'610.9
2017-Sep-24 18:00N 43°44' W 005°37'511.1
2017-Sep-24 17:30N 43°45' W 005°44'510.7
2017-Sep-24 17:01N 43°45' W 005°52'1010.5
2017-Sep-24 16:01N 43°46' W 006°06'010.5
2017-Sep-24 16:00N 43°46' W 006°06'4211.0
2017-Sep-24 12:12N 43°49' W 007°04'211.3
2017-Sep-24 12:00N 43°49' W 007°07'611.4
2017-Sep-24 11:31N 43°49' W 007°15'611.0
2017-Sep-24 11:00N 43°50' W 007°23'611.2
2017-Sep-24 10:31N 43°50' W 007°31'611.1
2017-Sep-24 10:00N 43°50' W 007°38'510.7
2017-Sep-24 09:30N 43°50' W 007°46'510.7
2017-Sep-24 09:00N 43°50' W 007°53'14811.1
2017-Sep-23 19:39N 41°48' W 009°48'  
2017-Sep-20 16:49N 43°44' W 006°16'27 7.4
2017-Sep-20 13:09N 43°33' W 005°41'0 0.0
2017-Sep-20 12:57N 43°33' W 005°41'0 0.0
2017-Sep-20 12:27N 43°33' W 005°41'0 0.0
2017-Sep-20 10:15N 43°33' W 005°41'0 0.0
2017-Sep-20 09:57N 43°33' W 005°41'0 0.0
2017-Sep-20 09:27N 43°33' W 005°41'0 0.0
2017-Sep-20 08:51N 43°33' W 005°41'0 0.0
2017-Sep-20 06:03N 43°33' W 005°41'0 0.0
2017-Sep-20 04:42N 43°33' W 005°41'0 0.2
2017-Sep-20 04:30N 43°33' W 005°41'3 5.5
2017-Sep-20 04:00N 43°35' W 005°38'816.4
2017-Sep-20 03:30N 43°35' W 005°27'917.6
2017-Sep-20 03:00N 43°35' W 005°15'917.7
2017-Sep-20 02:30N 43°35' W 005°03'5917.7
2017-Sep-19 23:10N 43°35' W 003°41'817.4
2017-Sep-19 22:41N 43°34' W 003°30'317.3
2017-Sep-19 22:30N 43°34' W 003°25'917.4
2017-Sep-19 22:00N 43°30' W 003°15'917.3
2017-Sep-19 21:30N 43°24' W 003°06'4 7.6
2017-Sep-19 20:59N 43°21' W 003°03'0 0.0
2017-Sep-19 20:29N 43°21' W 003°03'0 0.0
2017-Sep-19 19:59N 43°21' W 003°03'0 0.0
2017-Sep-19 19:29N 43°21' W 003°03'0 0.0
2017-Sep-19 18:59N 43°21' W 003°03'0 0.0
2017-Sep-19 18:29N 43°21' W 003°03'0 0.0
2017-Sep-19 17:59N 43°21' W 003°03'0 0.0
2017-Sep-19 17:26N 43°21' W 003°03'0 0.0
2017-Sep-19 16:59N 43°21' W 003°03'0 0.0
2017-Sep-19 16:29N 43°21' W 003°03'0 0.0
2017-Sep-19 15:59N 43°21' W 003°03'0 0.0
2017-Sep-19 12:41N 43°21' W 003°03'0 0.0
2017-Sep-19 12:29N 43°21' W 003°03'0 0.0
2017-Sep-19 11:59N 43°21' W 003°03'0 0.0
2017-Sep-19 11:29N 43°21' W 003°03'0 0.0
2017-Sep-19 10:59N 43°21' W 003°03'0 0.0
2017-Sep-19 10:29N 43°21' W 003°03'0 0.0
2017-Sep-19 09:59N 43°21' W 003°03'0 0.0
2017-Sep-19 09:29N 43°21' W 003°03'0 0.0
2017-Sep-19 08:59N 43°21' W 003°03'0 0.0
2017-Sep-19 08:29N 43°21' W 003°03'0 0.0
2017-Sep-19 07:59N 43°21' W 003°03'0 0.0
2017-Sep-19 07:29N 43°21' W 003°03'0 0.0
2017-Sep-19 06:59N 43°21' W 003°03'0 0.0
2017-Sep-19 06:29N 43°21' W 003°03'0 0.0
2017-Sep-19 05:59N 43°21' W 003°03'0 0.0
2017-Sep-19 05:29N 43°21' W 003°03'0 0.0
2017-Sep-19 04:59N 43°21' W 003°03'0 0.0
2017-Sep-19 04:29N 43°21' W 003°03'0 0.0
2017-Sep-19 03:59N 43°21' W 003°03'0 0.0
2017-Sep-19 03:29N 43°21' W 003°03'0 0.0
2017-Sep-19 02:59N 43°21' W 003°03'0 0.0
2017-Sep-19 02:29N 43°21' W 003°03'0 0.0
2017-Sep-19 01:59N 43°21' W 003°03'0 0.0
2017-Sep-19 01:29N 43°21' W 003°03'0 0.0
2017-Sep-19 00:59N 43°21' W 003°03'0 0.0
2017-Sep-19 00:29N 43°21' W 003°03'0 0.0
2017-Sep-18 23:59N 43°21' W 003°03'0 0.0
2017-Sep-18 23:29N 43°21' W 003°03'0 0.0
2017-Sep-18 22:59N 43°21' W 003°03'0 0.0
2017-Sep-18 22:29N 43°21' W 003°03'0 0.0
2017-Sep-18 21:59N 43°21' W 003°03'0 0.0
2017-Sep-18 21:29N 43°21' W 003°03'0 0.0
2017-Sep-18 20:59N 43°21' W 003°03'0 0.0
2017-Sep-18 20:29N 43°21' W 003°03'0 0.0
2017-Sep-18 19:59N 43°21' W 003°03'0 0.0
2017-Sep-18 19:29N 43°21' W 003°03'0 0.0
2017-Sep-18 18:59N 43°21' W 003°03'0 0.0
2017-Sep-18 18:29N 43°21' W 003°03'0 0.0
2017-Sep-18 17:59N 43°21' W 003°03'0 0.0
2017-Sep-18 17:29N 43°21' W 003°03'0 0.0
2017-Sep-18 16:59N 43°21' W 003°03'0 0.0
2017-Sep-18 16:29N 43°21' W 003°03'0 0.0
2017-Sep-18 15:59N 43°21' W 003°03'0 0.0
2017-Sep-18 15:29N 43°21' W 003°03'0 0.0
2017-Sep-18 14:59N 43°21' W 003°03'0 0.0
2017-Sep-18 14:26N 43°21' W 003°03'0 0.0
2017-Sep-18 13:59N 43°21' W 003°03'0 0.0
2017-Sep-18 13:29N 43°21' W 003°03'0 0.0
2017-Sep-18 12:59N 43°21' W 003°03'0 0.0
2017-Sep-18 12:29N 43°21' W 003°03'0 0.0
2017-Sep-18 11:59N 43°21' W 003°03'0 0.0
2017-Sep-18 11:29N 43°21' W 003°03'0 0.0
2017-Sep-18 10:59N 43°21' W 003°03'0 0.0
2017-Sep-18 10:26N 43°21' W 003°03'0 0.0
2017-Sep-18 09:59N 43°21' W 003°03'0 0.0
2017-Sep-18 09:29N 43°21' W 003°03'0 0.0
2017-Sep-18 08:59N 43°21' W 003°03'0 0.0
2017-Sep-18 08:29N 43°21' W 003°03'0 0.0
2017-Sep-18 07:59N 43°21' W 003°03'0 0.0
2017-Sep-18 07:29N 43°21' W 003°03'0 0.0
2017-Sep-18 06:59N 43°21' W 003°03'0 0.0
2017-Sep-18 06:29N 43°21' W 003°03'0 0.0
2017-Sep-18 05:59N 43°21' W 003°03'0 0.0
2017-Sep-18 05:29N 43°21' W 003°03'0 0.0
2017-Sep-18 04:59N 43°21' W 003°03'0 0.3
2017-Sep-18 04:30N 43°21' W 003°03'3 5.4
2017-Sep-18 04:00N 43°23' W 003°05'611.5
2017-Sep-18 03:31N 43°27' W 003°10'713.2
2017-Sep-18 03:00N 43°31' W 003°18'713.0
2017-Sep-18 02:31N 43°33' W 003°26'713.3
2017-Sep-18 02:00N 43°34' W 003°36'713.3
2017-Sep-18 01:31N 43°35' W 003°44'1513.4
2017-Sep-18 00:24N 43°36' W 004°05'5013.6
2017-Sep-17 20:44N 43°42' W 005°13'513.5
2017-Sep-17 20:22N 43°43' W 005°20'513.3
2017-Sep-17 19:59N 43°43' W 005°27'613.2
2017-Sep-17 19:30N 43°44' W 005°36'713.3
2017-Sep-17 18:59N 43°45' W 005°45'713.4
2017-Sep-17 18:30N 43°45' W 005°54'713.5
2017-Sep-17 18:00N 43°46' W 006°04'303 9.9
2017-Sep-16 11:14N 39°34' W 009°50'310.8
2017-Sep-16 10:59N 39°31' W 009°50'710.9
2017-Sep-16 10:20N 39°24' W 009°50'410.9
2017-Sep-16 10:00N 39°21' W 009°50'510.8
2017-Sep-16 09:30N 39°15' W 009°50'611.1
2017-Sep-16 09:00N 39°10' W 009°50'611.6
2017-Sep-16 08:30N 39°04' W 009°50'611.4
2017-Sep-16 08:00N 38°58' W 009°50'611.5
2017-Sep-16 07:30N 38°53' W 009°51'611.5
2017-Sep-16 07:00N 38°47' W 009°51'611.7
2017-Sep-16 06:30N 38°41' W 009°50'611.2
2017-Sep-16 06:00N 38°36' W 009°47'611.6
2017-Sep-16 05:30N 38°32' W 009°41'611.4
2017-Sep-16 05:00N 38°28' W 009°36'611.2
2017-Sep-16 04:30N 38°24' W 009°31'  
Track history (hours):
 
Tides and Currents Weather Stations Pressure Air Temp Water Temp Dewpoint Dewpoint Depression Visibility Wind Speed Wind Dir Waves Ship Positions

Aalderdijk

Last reported at 2017-Sep-26 04:21 UTC. Time now 2017-Sep-26 05:56 UTC.
Position N 43°34' W 003°29'.

Length 168 m; draft 9.1 m.

Type: Ship (hazmat cat A). MMSI: 636014588.

Date/timePositionNaut miles runAvg speedWind from/ knotsBaromVisibWave heightAir tempDewpointWater temp
2017-Sep-26 04:21N 43°34' W 003°29'410.3
2017-Sep-26 04:00N 43°34' W 003°24'510.5
2017-Sep-26 03:31N 43°31' W 003°18'510.6
2017-Sep-26 03:00N 43°28' W 003°12'510.4
2017-Sep-26 02:30N 43°25' W 003°06'4 7.8
2017-Sep-26 02:00N 43°22' W 003°03'1 2.2
2017-Sep-26 01:28N 43°21' W 003°03'0 0.0
2017-Sep-26 00:58N 43°21' W 003°03'0 0.0
2017-Sep-26 00:28N 43°21' W 003°03'0 0.0
2017-Sep-25 23:58N 43°21' W 003°03'0 0.0
2017-Sep-25 23:28N 43°21' W 003°03'0 0.0
2017-Sep-25 22:58N 43°21' W 003°03'0 0.0
2017-Sep-25 22:28N 43°21' W 003°03'0 0.0
2017-Sep-25 21:58N 43°21' W 003°03'0 0.0
2017-Sep-25 21:28N 43°21' W 003°03'0 0.0
2017-Sep-25 20:58N 43°21' W 003°03'0 0.0
2017-Sep-25 20:28N 43°21' W 003°03'0 0.0
2017-Sep-25 19:58N 43°21' W 003°03'0 0.0
2017-Sep-25 19:28N 43°21' W 003°03'0 0.0
2017-Sep-25 18:58N 43°21' W 003°03'0 0.0
2017-Sep-25 18:28N 43°21' W 003°03'0 0.0
2017-Sep-25 17:58N 43°21' W 003°03'0 0.0
2017-Sep-25 17:28N 43°21' W 003°03'0 0.0
2017-Sep-25 16:58N 43°21' W 003°03'0 0.0
2017-Sep-25 16:28N 43°21' W 003°03'0 0.0
2017-Sep-25 15:58N 43°21' W 003°03'0 0.0
2017-Sep-25 15:28N 43°21' W 003°03'0 0.0
2017-Sep-25 14:58N 43°21' W 003°03'0 0.0
2017-Sep-25 14:28N 43°21' W 003°03'0 0.0
2017-Sep-25 13:58N 43°21' W 003°03'0 0.0
2017-Sep-25 13:28N 43°21' W 003°03'0 0.0
2017-Sep-25 12:58N 43°21' W 003°03'0 0.0
2017-Sep-25 12:28N 43°21' W 003°03'0 0.0
2017-Sep-25 11:58N 43°21' W 003°03'0 0.0
2017-Sep-25 11:28N 43°21' W 003°03'0 0.0
2017-Sep-25 10:58N 43°21' W 003°03'0 0.0
2017-Sep-25 10:28N 43°21' W 003°03'0 0.0
2017-Sep-25 09:58N 43°21' W 003°03'0 0.0
2017-Sep-25 09:28N 43°21' W 003°03'0 0.0
2017-Sep-25 08:58N 43°21' W 003°03'0 0.0
2017-Sep-25 08:28N 43°21' W 003°03'0 0.0
2017-Sep-25 07:58N 43°21' W 003°03'0 0.0
2017-Sep-25 07:28N 43°21' W 003°03'0 0.0
2017-Sep-25 06:58N 43°21' W 003°03'0 0.0
2017-Sep-25 06:28N 43°21' W 003°03'0 0.0
2017-Sep-25 05:58N 43°21' W 003°03'0 0.0
2017-Sep-25 05:28N 43°21' W 003°03'0 0.0
2017-Sep-25 05:00N 43°21' W 003°03'0 0.1
2017-Sep-25 04:31N 43°21' W 003°03'2 4.1
2017-Sep-25 04:01N 43°22' W 003°04'611.4
2017-Sep-25 03:31N 43°27' W 003°10'611.6
2017-Sep-25 03:01N 43°30' W 003°16'611.9
2017-Sep-25 02:31N 43°33' W 003°23'612.0
2017-Sep-25 02:00N 43°34' W 003°31'611.5
2017-Sep-25 01:30N 43°34' W 003°39'1411.8
2017-Sep-25 00:18N 43°36' W 003°59'412.0
2017-Sep-25 00:00N 43°36' W 004°04'4211.4
2017-Sep-24 20:17N 43°41' W 005°02'511.1
2017-Sep-24 19:49N 43°42' W 005°09'311.3
2017-Sep-24 19:30N 43°42' W 005°14'611.2
2017-Sep-24 19:01N 43°43' W 005°22'510.8
2017-Sep-24 18:31N 43°43' W 005°29'610.9
2017-Sep-24 18:00N 43°44' W 005°37'511.1
2017-Sep-24 17:30N 43°45' W 005°44'510.7
2017-Sep-24 17:01N 43°45' W 005°52'1010.5
2017-Sep-24 16:01N 43°46' W 006°06'010.5
2017-Sep-24 16:00N 43°46' W 006°06'4211.0
2017-Sep-24 12:12N 43°49' W 007°04'211.3
2017-Sep-24 12:00N 43°49' W 007°07'611.4
2017-Sep-24 11:31N 43°49' W 007°15'611.0
2017-Sep-24 11:00N 43°50' W 007°23'611.2
2017-Sep-24 10:31N 43°50' W 007°31'611.1
2017-Sep-24 10:00N 43°50' W 007°38'510.7
2017-Sep-24 09:30N 43°50' W 007°46'510.7
2017-Sep-24 09:00N 43°50' W 007°53'14811.1
2017-Sep-23 19:39N 41°48' W 009°48'  
2017-Sep-20 16:49N 43°44' W 006°16'27 7.4
2017-Sep-20 13:09N 43°33' W 005°41'0 0.0
2017-Sep-20 12:57N 43°33' W 005°41'0 0.0
2017-Sep-20 12:27N 43°33' W 005°41'0 0.0
2017-Sep-20 10:15N 43°33' W 005°41'0 0.0
2017-Sep-20 09:57N 43°33' W 005°41'0 0.0
2017-Sep-20 09:27N 43°33' W 005°41'0 0.0
2017-Sep-20 08:51N 43°33' W 005°41'0 0.0
2017-Sep-20 06:03N 43°33' W 005°41'0 0.0
2017-Sep-20 04:42N 43°33' W 005°41'0 0.2
2017-Sep-20 04:30N 43°33' W 005°41'3 5.5
2017-Sep-20 04:00N 43°35' W 005°38'816.4
2017-Sep-20 03:30N 43°35' W 005°27'917.6
2017-Sep-20 03:00N 43°35' W 005°15'917.7
2017-Sep-20 02:30N 43°35' W 005°03'5917.7
2017-Sep-19 23:10N 43°35' W 003°41'817.4
2017-Sep-19 22:41N 43°34' W 003°30'317.3
2017-Sep-19 22:30N 43°34' W 003°25'917.4
2017-Sep-19 22:00N 43°30' W 003°15'917.3
2017-Sep-19 21:30N 43°24' W 003°06'4 7.6
2017-Sep-19 20:59N 43°21' W 003°03'0 0.0
2017-Sep-19 20:29N 43°21' W 003°03'0 0.0
2017-Sep-19 19:59N 43°21' W 003°03'0 0.0
2017-Sep-19 19:29N 43°21' W 003°03'0 0.0
2017-Sep-19 18:59N 43°21' W 003°03'0 0.0
2017-Sep-19 18:29N 43°21' W 003°03'0 0.0
2017-Sep-19 17:59N 43°21' W 003°03'0 0.0
2017-Sep-19 17:26N 43°21' W 003°03'0 0.0
2017-Sep-19 16:59N 43°21' W 003°03'0 0.0
2017-Sep-19 16:29N 43°21' W 003°03'0 0.0
2017-Sep-19 15:59N 43°21' W 003°03'0 0.0
2017-Sep-19 12:41N 43°21' W 003°03'0 0.0
2017-Sep-19 12:29N 43°21' W 003°03'0 0.0
2017-Sep-19 11:59N 43°21' W 003°03'0 0.0
2017-Sep-19 11:29N 43°21' W 003°03'0 0.0
2017-Sep-19 10:59N 43°21' W 003°03'0 0.0
2017-Sep-19 10:29N 43°21' W 003°03'0 0.0
2017-Sep-19 09:59N 43°21' W 003°03'0 0.0
2017-Sep-19 09:29N 43°21' W 003°03'0 0.0
2017-Sep-19 08:59N 43°21' W 003°03'0 0.0
2017-Sep-19 08:29N 43°21' W 003°03'0 0.0
2017-Sep-19 07:59N 43°21' W 003°03'0 0.0
2017-Sep-19 07:29N 43°21' W 003°03'0 0.0
2017-Sep-19 06:59N 43°21' W 003°03'0 0.0
2017-Sep-19 06:29N 43°21' W 003°03'0 0.0
2017-Sep-19 05:59N 43°21' W 003°03'0 0.0
2017-Sep-19 05:29N 43°21' W 003°03'0 0.0
2017-Sep-19 04:59N 43°21' W 003°03'0 0.0
2017-Sep-19 04:29N 43°21' W 003°03'0 0.0
2017-Sep-19 03:59N 43°21' W 003°03'0 0.0
2017-Sep-19 03:29N 43°21' W 003°03'0 0.0
2017-Sep-19 02:59N 43°21' W 003°03'0 0.0
2017-Sep-19 02:29N 43°21' W 003°03'0 0.0
2017-Sep-19 01:59N 43°21' W 003°03'0 0.0
2017-Sep-19 01:29N 43°21' W 003°03'0 0.0
2017-Sep-19 00:59N 43°21' W 003°03'0 0.0
2017-Sep-19 00:29N 43°21' W 003°03'0 0.0
2017-Sep-18 23:59N 43°21' W 003°03'0 0.0
2017-Sep-18 23:29N 43°21' W 003°03'0 0.0
2017-Sep-18 22:59N 43°21' W 003°03'0 0.0
2017-Sep-18 22:29N 43°21' W 003°03'0 0.0
2017-Sep-18 21:59N 43°21' W 003°03'0 0.0
2017-Sep-18 21:29N 43°21' W 003°03'0 0.0
2017-Sep-18 20:59N 43°21' W 003°03'0 0.0
2017-Sep-18 20:29N 43°21' W 003°03'0 0.0
2017-Sep-18 19:59N 43°21' W 003°03'0 0.0
2017-Sep-18 19:29N 43°21' W 003°03'0 0.0
2017-Sep-18 18:59N 43°21' W 003°03'0 0.0
2017-Sep-18 18:29N 43°21' W 003°03'0 0.0
2017-Sep-18 17:59N 43°21' W 003°03'0 0.0
2017-Sep-18 17:29N 43°21' W 003°03'0 0.0
2017-Sep-18 16:59N 43°21' W 003°03'0 0.0
2017-Sep-18 16:29N 43°21' W 003°03'0 0.0
2017-Sep-18 15:59N 43°21' W 003°03'0 0.0
2017-Sep-18 15:29N 43°21' W 003°03'0 0.0
2017-Sep-18 14:59N 43°21' W 003°03'0 0.0
2017-Sep-18 14:26N 43°21' W 003°03'0 0.0
2017-Sep-18 13:59N 43°21' W 003°03'0 0.0
2017-Sep-18 13:29N 43°21' W 003°03'0 0.0
2017-Sep-18 12:59N 43°21' W 003°03'0 0.0
2017-Sep-18 12:29N 43°21' W 003°03'0 0.0
2017-Sep-18 11:59N 43°21' W 003°03'0 0.0
2017-Sep-18 11:29N 43°21' W 003°03'0 0.0
2017-Sep-18 10:59N 43°21' W 003°03'0 0.0
2017-Sep-18 10:26N 43°21' W 003°03'0 0.0
2017-Sep-18 09:59N 43°21' W 003°03'0 0.0
2017-Sep-18 09:29N 43°21' W 003°03'0 0.0
2017-Sep-18 08:59N 43°21' W 003°03'0 0.0
2017-Sep-18 08:29N 43°21' W 003°03'0 0.0
2017-Sep-18 07:59N 43°21' W 003°03'0 0.0
2017-Sep-18 07:29N 43°21' W 003°03'0 0.0
2017-Sep-18 06:59N 43°21' W 003°03'0 0.0
2017-Sep-18 06:29N 43°21' W 003°03'0 0.0
2017-Sep-18 05:59N 43°21' W 003°03'0 0.0
2017-Sep-18 05:29N 43°21' W 003°03'0 0.0
2017-Sep-18 04:59N 43°21' W 003°03'0 0.3
2017-Sep-18 04:30N 43°21' W 003°03'3 5.4
2017-Sep-18 04:00N 43°23' W 003°05'611.5
2017-Sep-18 03:31N 43°27' W 003°10'713.2
2017-Sep-18 03:00N 43°31' W 003°18'713.0
2017-Sep-18 02:31N 43°33' W 003°26'713.3
2017-Sep-18 02:00N 43°34' W 003°36'713.3
2017-Sep-18 01:31N 43°35' W 003°44'1513.4
2017-Sep-18 00:24N 43°36' W 004°05'5013.6
2017-Sep-17 20:44N 43°42' W 005°13'513.5
2017-Sep-17 20:22N 43°43' W 005°20'513.3
2017-Sep-17 19:59N 43°43' W 005°27'613.2
2017-Sep-17 19:30N 43°44' W 005°36'713.3
2017-Sep-17 18:59N 43°45' W 005°45'713.4
2017-Sep-17 18:30N 43°45' W 005°54'713.5
2017-Sep-17 18:00N 43°46' W 006°04'303 9.9
2017-Sep-16 11:14N 39°34' W 009°50'310.8
2017-Sep-16 10:59N 39°31' W 009°50'710.9
2017-Sep-16 10:20N 39°24' W 009°50'410.9
2017-Sep-16 10:00N 39°21' W 009°50'510.8
2017-Sep-16 09:30N 39°15' W 009°50'611.1
2017-Sep-16 09:00N 39°10' W 009°50'611.6
2017-Sep-16 08:30N 39°04' W 009°50'611.4
2017-Sep-16 08:00N 38°58' W 009°50'611.5
2017-Sep-16 07:30N 38°53' W 009°51'611.5
2017-Sep-16 07:00N 38°47' W 009°51'611.7
2017-Sep-16 06:30N 38°41' W 009°50'611.2
2017-Sep-16 06:00N 38°36' W 009°47'611.6
2017-Sep-16 05:30N 38°32' W 009°41'611.4
2017-Sep-16 05:00N 38°28' W 009°36'611.2
2017-Sep-16 04:30N 38°24' W 009°31'  

Dump ship's entire track history